Time;durP1;ratioP1;P1;durP2;ratioP2;P2;SDS_P1;SDS_P2;PMS_P1;PMS_P2;Temp;Humidity;BMP_temperature;BMP_pressure;BME280_temperature;BME280_humidity;BME280_pressure;Samples;Min_cycle;Max_cycle;Signal;HPM_P1;HPM_P2
2022/06/09 00:00:08;;;;;;;11.67;7.17;;;16.00;1.00;;;;;;5002601;28;20943;-50
2022/06/09 00:02:36;;;;;;;13.10;7.50;;;16.10;1.00;;;;;;4998861;28;20262;-50
2022/06/09 00:05:04;;;;;;;7.47;6.67;;;16.10;1.00;;;;;;4996059;28;20517;-50
2022/06/09 00:07:31;;;;;;;6.60;5.90;;;16.10;1.00;;;;;;4991908;28;20449;-50
2022/06/09 00:10:10;;;;;;;9.07;6.50;;;16.00;1.00;;;;;;4998268;28;20424;-50
2022/06/09 00:12:37;;;;;;;8.33;7.53;;;16.00;1.00;;;;;;4993987;28;20471;-50
2022/06/09 00:15:05;;;;;;;11.97;7.90;;;16.00;1.00;;;;;;5004901;28;20442;-50
2022/06/09 00:17:31;;;;;;;9.13;7.13;;;16.00;1.00;;;;;;4992658;28;20510;-50
2022/06/09 00:19:56;;;;;;;12.13;7.93;;;16.00;1.00;;;;;;5004871;28;21020;-50
2022/06/09 00:22:22;;;;;;;9.23;8.07;;;16.00;1.00;;;;;;4991930;28;20236;-50
2022/06/09 00:24:48;;;;;;;12.57;8.97;;;16.00;1.00;;;;;;4999091;28;20212;-49
2022/06/09 00:27:13;;;;;;;16.23;9.27;;;16.10;99.90;;;;;;5003004;28;20204;-50
2022/06/09 00:29:39;;;;;;;10.10;8.33;;;16.10;99.90;;;;;;4996947;28;20216;-50
2022/06/09 00:32:05;;;;;;;10.30;9.20;;;16.00;99.90;;;;;;5003772;28;20646;-50
2022/06/09 00:34:31;;;;;;;9.50;8.20;;;16.10;56.90;;;;;;4990443;28;20451;-50
2022/06/09 00:36:57;;;;;;;11.73;8.70;;;16.10;1.00;;;;;;4999263;28;20439;-50
2022/06/09 00:39:23;;;;;;;9.57;8.07;;;16.10;1.00;;;;;;5000474;28;20196;-50
2022/06/09 00:41:48;;;;;;;10.27;9.13;;;16.10;1.00;;;;;;4996193;28;20469;-50
2022/06/09 00:44:20;;;;;;;10.17;9.07;;;16.10;1.00;;;;;;4996768;28;20209;-50
2022/06/09 00:47:08;;;;;;;12.67;9.57;;;16.10;1.00;;;;;;4999687;28;20184;-50
2022/06/09 00:50:05;;;;;;;11.13;8.43;;;16.10;1.00;;;;;;5000119;28;20918;-50
2022/06/09 00:52:35;;;;;;;8.63;7.80;;;16.00;1.00;;;;;;4993077;28;20988;-50
2022/06/09 00:55:05;;;;;;;10.17;8.90;;;16.00;1.00;;;;;;4996712;28;20443;-50
2022/06/09 00:57:37;;;;;;;13.83;9.77;;;16.00;1.00;;;;;;5000168;28;20524;-50
2022/06/09 01:00:10;;;;;;;13.77;10.70;;;16.00;1.00;;;;;;4995364;28;20434;-50
2022/06/09 01:02:37;;;;;;;15.00;11.40;;;16.00;1.00;;;;;;4993671;28;20419;-50
2022/06/09 01:05:05;;;;;;;12.30;10.80;;;16.00;1.00;;;;;;5000505;28;20967;-50
2022/06/09 01:07:42;;;;;;;13.67;11.10;;;15.90;1.00;;;;;;5005165;28;20481;-50
2022/06/09 01:10:08;;;;;;;13.57;10.73;;;15.90;1.00;;;;;;4996029;28;20507;-50
2022/06/09 01:12:38;;;;;;;14.13;11.10;;;15.90;99.90;;;;;;5002793;28;20521;-50
2022/06/09 01:15:11;;;;;;;15.40;10.90;;;15.80;99.90;;;;;;5000647;28;20482;-50
2022/06/09 01:17:56;;;;;;;15.57;12.47;;;15.70;99.90;;;;;;4996603;28;20439;-50
2022/06/09 01:20:30;;;;;;;13.57;11.13;;;15.70;1.00;;;;;;4999451;28;20532;-50
2022/06/09 01:23:32;;;;;;;15.23;11.10;;;15.70;99.90;;;;;;5005282;28;20458;-50
2022/06/09 01:26:01;;;;;;;16.07;12.23;;;15.70;1.00;;;;;;4988066;28;20561;-50
2022/06/09 01:28:41;;;;;;;15.07;11.60;;;15.60;1.00;;;;;;4993761;28;20446;-50
2022/06/09 01:31:25;;;;;;;18.90;12.40;;;15.60;99.90;;;;;;4996301;28;20526;-50
2022/06/09 01:34:02;;;;;;;13.80;11.43;;;15.50;1.00;;;;;;5001298;28;20470;-50
2022/06/09 01:36:31;;;;;;;15.70;12.27;;;15.50;99.90;;;;;;4997199;28;20439;-50
2022/06/09 01:38:57;;;;;;;14.60;11.40;;;15.50;1.00;;;;;;4993995;28;20439;-50
2022/06/09 01:41:25;;;;;;;13.97;12.37;;;15.40;99.90;;;;;;5001796;28;20439;-50
2022/06/09 01:43:54;;;;;;;14.73;12.40;;;15.40;1.00;;;;;;4993073;28;20435;-50
2022/06/09 01:46:33;;;;;;;19.73;12.80;;;15.40;1.00;;;;;;4990721;28;20470;-50
2022/06/09 01:49:10;;;;;;;17.90;13.70;;;15.40;1.00;;;;;;4997889;28;20461;-50
2022/06/09 01:51:39;;;;;;;13.63;11.13;;;15.40;1.00;;;;;;4996072;28;20443;-50
2022/06/09 01:54:30;;;;;;;11.80;10.60;;;15.40;99.90;;;;;;4994211;28;20852;-50
2022/06/09 01:57:07;;;;;;;11.53;10.00;;;15.40;1.00;;;;;;4987280;28;20851;-50
2022/06/09 01:59:41;;;;;;;18.00;10.57;;;15.40;99.90;;;;;;4997640;28;21638;-50
2022/06/09 02:02:36;;;;;;;9.90;8.90;;;15.30;1.00;;;;;;5002614;28;20915;-50
2022/06/09 02:05:07;;;;;;;16.30;10.27;;;15.40;1.00;;;;;;4998936;28;20501;-50
2022/06/09 02:07:34;;;;;;;11.77;9.03;;;15.40;1.00;;;;;;4991616;28;20435;-50
2022/06/09 02:10:36;;;;;;;14.27;8.53;;;15.40;1.00;;;;;;5000436;28;20442;-50
2022/06/09 02:13:24;;;;;;;13.00;9.20;;;15.30;1.00;;;;;;4956155;28;20441;-50
2022/06/09 02:15:52;;;;;;;10.63;8.90;;;15.30;89.10;;;;;;4995423;28;20832;-50
2022/06/09 02:18:24;;;;;;;10.97;8.50;;;15.30;1.00;;;;;;4994408;28;20550;-50
2022/06/09 02:20:58;;;;;;;11.17;8.77;;;15.20;1.00;;;;;;4991695;28;20482;-50
2022/06/09 02:23:24;;;;;;;10.40;7.40;;;15.20;1.00;;;;;;4995097;28;20448;-51
2022/06/09 02:25:50;;;;;;;10.20;8.50;;;15.20;1.00;;;;;;4996017;28;20477;-50
2022/06/09 02:28:15;;;;;;;11.53;7.90;;;15.20;1.00;;;;;;4993609;28;20449;-50
2022/06/09 02:30:42;;;;;;;9.83;8.10;;;15.20;1.00;;;;;;4995137;28;20211;-50
2022/06/09 02:33:08;;;;;;;9.33;6.60;;;15.30;1.00;;;;;;4997777;28;20191;-50
2022/06/09 02:35:33;;;;;;;8.83;6.77;;;15.20;99.90;;;;;;5000015;28;21225;-50
2022/06/09 02:38:02;;;;;;;11.63;6.77;;;15.20;99.90;;;;;;4981136;28;20459;-50
2022/06/09 02:40:28;;;;;;;8.20;5.87;;;15.30;1.00;;;;;;4999674;28;20210;-50
2022/06/09 02:42:54;;;;;;;9.80;6.63;;;15.40;1.00;;;;;;4998167;28;20443;-50
2022/06/09 02:45:20;;;;;;;7.67;6.10;;;15.40;1.00;;;;;;4989974;28;20573;-50
2022/06/09 02:47:46;;;;;;;8.83;6.37;;;15.50;99.90;;;;;;4996647;28;20514;-50
2022/06/09 02:50:12;;;;;;;6.20;5.60;;;15.50;1.00;;;;;;5002664;28;20239;-50
2022/06/09 02:52:38;;;;;;;7.77;5.80;;;15.50;1.00;;;;;;4991462;28;20192;-50
2022/06/09 02:55:04;;;;;;;9.80;6.33;;;15.40;99.90;;;;;;5003576;28;20760;-50
2022/06/09 02:57:30;;;;;;;10.57;6.50;;;15.50;99.90;;;;;;4989875;28;20255;-52
2022/06/09 02:59:56;;;;;;;7.67;6.00;;;15.40;99.90;;;;;;4996561;28;20447;-50
2022/06/09 03:02:22;;;;;;;9.33;5.83;;;15.40;99.90;;;;;;4991501;28;20654;-49
2022/06/09 03:04:50;;;;;;;8.30;5.90;;;15.40;91.20;;;;;;5002668;28;20478;-50
2022/06/09 03:07:16;;;;;;;8.63;6.53;;;15.40;73.70;;;;;;4997348;28;20488;-50
2022/06/09 03:09:41;;;;;;;9.93;6.20;;;15.30;99.90;;;;;;5003234;28;20442;-49
2022/06/09 03:12:09;;;;;;;6.67;5.97;;;15.30;99.90;;;;;;4992899;28;20449;-49
2022/06/09 03:14:35;;;;;;;9.60;6.90;;;15.30;99.90;;;;;;5002141;28;20215;-50
2022/06/09 03:17:01;;;;;;;9.27;7.07;;;15.30;99.90;;;;;;5003963;28;20540;-50
2022/06/09 03:19:27;;;;;;;6.20;5.60;;;15.30;96.70;;;;;;4999272;28;20892;-50
2022/06/09 03:21:52;;;;;;;7.10;5.87;;;15.30;74.30;;;;;;5003526;28;20245;-50
2022/06/09 03:24:18;;;;;;;7.87;6.50;;;15.30;27.00;;;;;;4989342;28;21039;-50
2022/06/09 03:26:44;;;;;;;7.97;6.77;;;15.30;23.60;;;;;;4998872;28;20324;-50
2022/06/09 03:29:09;;;;;;;9.20;6.67;;;15.30;14.00;;;;;;5004813;28;20287;-49
2022/06/09 03:31:35;;;;;;;8.30;7.40;;;15.30;19.70;;;;;;5000685;28;20197;-50
2022/06/09 03:34:02;;;;;;;9.73;7.50;;;15.20;41.50;;;;;;5001581;28;20451;-50
2022/06/09 03:36:29;;;;;;;11.03;8.10;;;15.20;95.10;;;;;;5004536;28;20266;-50
2022/06/09 03:38:55;;;;;;;9.70;8.30;;;15.20;99.90;;;;;;4994342;28;20527;-50
2022/06/09 03:41:21;;;;;;;11.37;8.80;;;15.20;99.90;;;;;;5003537;28;20542;-49
2022/06/09 03:43:46;;;;;;;15.30;8.90;;;15.20;99.90;;;;;;4996144;28;20189;-50
2022/06/09 03:46:12;;;;;;;15.77;9.90;;;15.20;99.90;;;;;;5002474;28;20921;-51
2022/06/09 03:48:38;;;;;;;15.50;9.23;;;15.20;99.90;;;;;;5000095;28;20278;-51
2022/06/09 03:51:03;;;;;;;15.40;10.57;;;15.20;99.90;;;;;;5000168;28;20457;-50
2022/06/09 03:53:29;;;;;;;13.83;10.47;;;15.20;99.90;;;;;;4997926;28;20247;-50
2022/06/09 03:55:57;;;;;;;16.30;12.77;;;15.20;99.90;;;;;;5000347;28;20335;-50
2022/06/09 03:58:23;;;;;;;22.43;12.17;;;15.30;99.90;;;;;;5002864;28;20195;-49
2022/06/09 04:00:48;;;;;;;22.03;13.67;;;15.30;99.90;;;;;;5002048;28;20451;-50
2022/06/09 04:03:14;;;;;;;18.60;11.90;;;15.40;99.90;;;;;;5002058;28;20457;-50
2022/06/09 04:05:40;;;;;;;21.63;15.10;;;15.30;99.90;;;;;;5001495;28;20235;-50
2022/06/09 04:08:06;;;;;;;24.20;14.40;;;15.30;99.90;;;;;;5004411;28;20188;-54
2022/06/09 04:10:33;;;;;;;20.07;13.97;;;15.30;99.90;;;;;;4997699;28;20207;-50
2022/06/09 04:12:59;;;;;;;22.33;13.17;;;15.40;99.90;;;;;;4999597;28;20534;-50
2022/06/09 04:15:25;;;;;;;30.67;15.40;;;15.40;99.90;;;;;;4993128;28;20999;-50
2022/06/09 04:17:54;;;;;;;19.60;14.33;;;15.30;99.90;;;;;;4989053;28;20208;-50
2022/06/09 04:20:23;;;;;;;20.23;15.90;;;15.30;99.90;;;;;;4997408;28;20459;-50
2022/06/09 04:22:49;;;;;;;24.87;16.70;;;15.30;99.90;;;;;;4998151;28;20532;-50
2022/06/09 04:25:16;;;;;;;22.83;15.60;;;15.40;1.00;;;;;;4995313;28;20960;-50
2022/06/09 04:27:41;;;;;;;20.27;14.57;;;15.40;1.00;;;;;;4994285;28;20200;-49
2022/06/09 04:30:08;;;;;;;22.40;15.50;;;15.50;99.90;;;;;;4997549;28;20435;-50
2022/06/09 04:32:34;;;;;;;21.80;16.03;;;15.60;99.90;;;;;;5003578;28;20199;-50
2022/06/09 04:34:59;;;;;;;22.27;15.13;;;15.60;99.90;;;;;;4996233;28;20432;-49
2022/06/09 04:37:59;;;;;;;19.50;14.60;;;15.70;99.90;;;;;;4993400;28;20238;-50
2022/06/09 04:40:11;;;;;;;21.80;15.40;;;15.70;99.90;;;;;;5003536;28;20210;-50
2022/06/09 04:42:37;;;;;;;19.03;14.73;;;15.80;99.90;;;;;;4994677;28;20493;-49
2022/06/09 04:45:03;;;;;;;21.73;15.20;;;15.90;99.90;;;;;;4993499;28;20467;-50
2022/06/09 04:47:29;;;;;;;24.10;17.17;;;15.90;71.50;;;;;;4996235;28;20274;-50
2022/06/09 04:49:54;;;;;;;24.90;16.80;;;15.80;3.90;;;;;;4999539;28;21122;-50
2022/06/09 04:52:20;;;;;;;25.30;16.20;;;15.90;1.00;;;;;;5002644;28;20192;-50
2022/06/09 04:54:46;;;;;;;25.13;15.90;;;15.90;1.00;;;;;;4995833;28;20274;-50
2022/06/09 04:57:11;;;;;;;28.80;16.60;;;15.90;1.00;;;;;;5000777;28;20199;-50
2022/06/09 04:59:37;;;;;;;27.43;16.80;;;16.00;1.00;;;;;;5000962;28;20200;-50
2022/06/09 05:02:02;;;;;;;24.80;15.60;;;16.00;1.00;;;;;;4995614;28;20187;-50
2022/06/09 05:04:28;;;;;;;24.70;17.33;;;15.90;1.00;;;;;;4993909;28;20564;-50
2022/06/09 05:06:54;;;;;;;24.70;17.57;;;15.90;1.00;;;;;;5001392;28;20189;-50
2022/06/09 05:09:20;;;;;;;27.10;15.50;;;16.00;1.00;;;;;;5001365;28;20672;-50
2022/06/09 05:11:45;;;;;;;29.17;17.00;;;16.00;1.00;;;;;;4994118;28;20435;-50
2022/06/09 05:14:13;;;;;;;21.40;15.13;;;16.00;1.00;;;;;;5009161;28;20202;-49
2022/06/09 05:16:39;;;;;;;24.73;15.17;;;16.00;1.00;;;;;;4995227;28;20662;-50
2022/06/09 05:19:04;;;;;;;22.33;15.13;;;15.90;1.00;;;;;;4993217;28;20446;-49
2022/06/09 05:21:30;;;;;;;26.43;16.40;;;15.90;1.00;;;;;;4993921;28;20574;-50
2022/06/09 05:23:55;;;;;;;18.10;13.70;;;15.90;1.00;;;;;;4990510;28;20180;-50
2022/06/09 05:26:21;;;;;;;21.80;14.30;;;16.00;1.00;;;;;;4991710;28;20222;-49
2022/06/09 05:28:47;;;;;;;28.07;13.87;;;16.00;1.00;;;;;;5000241;28;20195;-49
2022/06/09 05:31:13;;;;;;;22.13;13.70;;;16.10;1.00;;;;;;4999570;28;20210;-49
2022/06/09 05:33:39;;;;;;;18.30;12.70;;;16.30;1.00;;;;;;4996599;28;20498;-54
2022/06/09 05:36:05;;;;;;;16.00;12.20;;;16.30;1.00;;;;;;4990010;28;20439;-50
2022/06/09 05:46:45;;;;;;;16.20;11.50;;;16.80;1.00;;;;;;4996504;28;20508;-53
2022/06/09 05:49:11;;;;;;;20.87;12.20;;;16.80;1.00;;;;;;4998327;28;20450;-53
2022/06/09 05:51:37;;;;;;;20.90;11.50;;;16.80;1.00;;;;;;4990834;28;20449;-54
2022/06/09 05:54:04;;;;;;;12.97;8.10;;;16.90;1.00;;;;;;5002154;28;20541;-52
2022/06/09 05:56:29;;;;;;;11.93;8.30;;;16.80;1.00;;;;;;4991993;28;20530;-52
2022/06/09 05:58:55;;;;;;;9.63;7.93;;;16.80;1.00;;;;;;4989718;28;20535;-50
2022/06/09 06:01:21;;;;;;;13.20;7.13;;;16.80;1.00;;;;;;4996093;28;20188;-54
2022/06/09 06:03:47;;;;;;;12.83;8.67;;;16.70;1.00;;;;;;4994706;28;20202;-49
2022/06/09 06:08:57;;;;;;;9.53;7.90;;;16.50;1.00;;;;;;4994040;28;20494;-49
2022/06/09 06:11:23;;;;;;;13.63;8.70;;;16.40;1.00;;;;;;5000884;28;20426;-49
2022/06/09 06:13:50;;;;;;;16.03;8.50;;;16.40;1.00;;;;;;4991798;28;20207;-49
2022/06/09 06:16:16;;;;;;;11.53;8.00;;;16.40;1.00;;;;;;4988536;28;20224;-49
2022/06/09 06:18:41;;;;;;;8.80;7.00;;;16.50;1.00;;;;;;5002167;28;20427;-49
2022/06/09 06:21:08;;;;;;;12.03;6.33;;;16.60;1.00;;;;;;4991861;28;20638;-49
2022/06/09 06:23:34;;;;;;;8.00;6.40;;;16.70;1.00;;;;;;5002386;28;20196;-49
2022/06/09 06:26:00;;;;;;;7.50;5.77;;;16.70;99.90;;;;;;4997361;28;20952;-50
2022/06/09 06:28:26;;;;;;;8.77;5.80;;;16.80;99.90;;;;;;4997990;28;20618;-49
2022/06/09 06:30:53;;;;;;;6.47;5.77;;;16.80;99.90;;;;;;4996076;28;20443;-49
2022/06/09 06:33:19;;;;;;;7.30;5.10;;;16.80;99.90;;;;;;5003525;28;20438;-49
2022/06/09 06:35:45;;;;;;;6.13;4.90;;;16.90;99.90;;;;;;4991340;28;20434;-50
2022/06/09 06:38:11;;;;;;;10.90;5.80;;;16.90;99.90;;;;;;5003815;28;20478;-49
2022/06/09 06:40:37;;;;;;;5.87;4.93;;;16.80;99.90;;;;;;4998221;28;20479;-49
2022/06/09 06:43:03;;;;;;;7.13;4.53;;;16.80;99.90;;;;;;5001152;28;20184;-49
2022/06/09 06:45:29;;;;;;;5.70;4.03;;;16.70;99.90;;;;;;5006322;28;20650;-49
2022/06/09 06:47:56;;;;;;;4.93;4.53;;;16.80;99.90;;;;;;5001885;28;20450;-49
2022/06/09 06:50:24;;;;;;;6.17;4.77;;;16.80;99.90;;;;;;5001638;28;20473;-49
2022/06/09 06:52:50;;;;;;;6.93;4.57;;;16.90;99.90;;;;;;4994293;28;20439;-49
2022/06/09 06:55:18;;;;;;;5.70;4.87;;;17.00;99.90;;;;;;5001763;28;20443;-49
2022/06/09 06:57:44;;;;;;;6.50;5.40;;;17.10;99.90;;;;;;5003578;28;20423;-49
2022/06/09 07:00:13;;;;;;;8.20;4.90;;;17.00;99.90;;;;;;4998811;28;20798;-49
2022/06/09 07:02:38;;;;;;;5.60;5.07;;;17.10;99.90;;;;;;5004299;28;20474;-49
2022/06/09 07:05:04;;;;;;;5.30;4.80;;;17.20;99.90;;;;;;4996556;28;20510;-49
2022/06/09 07:07:30;;;;;;;6.00;5.40;;;17.30;99.90;;;;;;5004199;28;20189;-49
2022/06/09 07:09:56;;;;;;;7.20;5.20;;;17.50;99.90;;;;;;5006874;28;20882;-49
2022/06/09 07:12:21;;;;;;;5.67;5.17;;;17.60;99.90;;;;;;5000319;28;21003;-49
2022/06/09 07:14:47;;;;;;;7.83;6.20;;;17.60;99.90;;;;;;5001193;28;20192;-49
2022/06/09 07:17:13;;;;;;;12.97;5.70;;;17.70;99.90;;;;;;5000863;28;20254;-49
2022/06/09 07:19:38;;;;;;;10.37;6.40;;;17.60;99.90;;;;;;5002671;28;20537;-49
2022/06/09 07:22:06;;;;;;;9.70;6.40;;;17.60;99.90;;;;;;5005081;28;20698;-49
2022/06/09 07:24:32;;;;;;;7.73;6.20;;;17.70;99.90;;;;;;4998591;28;20287;-49
2022/06/09 07:26:58;;;;;;;9.10;7.37;;;17.90;99.90;;;;;;4993743;28;20435;-49
2022/06/09 07:29:25;;;;;;;8.67;6.23;;;18.10;99.90;;;;;;5002743;28;20431;-49
2022/06/09 07:31:51;;;;;;;9.50;6.00;;;18.30;99.90;;;;;;4996751;28;20172;-49
2022/06/09 07:34:18;;;;;;;8.10;6.47;;;18.40;99.90;;;;;;5003156;28;20759;-49
2022/06/09 07:36:44;;;;;;;8.30;7.20;;;18.40;99.90;;;;;;4999039;28;20450;-49
2022/06/09 07:39:09;;;;;;;9.00;7.30;;;18.40;99.90;;;;;;5007390;28;20418;-49
2022/06/09 07:41:35;;;;;;;11.23;6.40;;;18.30;99.90;;;;;;4999621;28;20196;-50
2022/06/09 07:44:04;;;;;;;7.07;6.23;;;18.30;99.90;;;;;;5004971;28;20528;-53
2022/06/09 07:46:30;;;;;;;10.70;7.70;;;18.10;99.90;;;;;;5002598;28;20227;-52
2022/06/09 07:48:56;;;;;;;9.33;7.70;;;18.10;99.90;;;;;;4998886;28;20434;-53
2022/06/09 07:51:22;;;;;;;11.07;8.20;;;18.20;99.90;;;;;;5001010;28;20938;-52
2022/06/09 07:53:48;;;;;;;10.07;8.00;;;18.10;99.90;;;;;;5004876;28;20408;-52
2022/06/09 07:56:14;;;;;;;10.87;8.47;;;18.00;99.90;;;;;;5002120;28;20183;-52
2022/06/09 07:58:41;;;;;;;9.17;7.77;;;18.00;99.90;;;;;;5000546;28;20446;-52
2022/06/09 08:01:06;;;;;;;8.07;6.73;;;18.20;99.90;;;;;;5002194;28;20419;-51
2022/06/09 08:03:32;;;;;;;10.20;7.50;;;18.30;99.90;;;;;;5006092;28;20449;-52
2022/06/09 08:05:57;;;;;;;10.30;6.90;;;18.30;99.90;;;;;;5000133;28;20249;-51
2022/06/09 08:08:23;;;;;;;10.30;7.40;;;18.40;99.90;;;;;;4998245;28;20251;-52
2022/06/09 08:10:49;;;;;;;11.70;7.40;;;18.60;99.90;;;;;;5003866;28;20189;-52
2022/06/09 08:13:16;;;;;;;8.70;7.23;;;18.70;99.90;;;;;;4996069;28;20196;-52
2022/06/09 08:15:45;;;;;;;13.07;8.00;;;18.80;99.90;;;;;;5004870;28;20426;-51
2022/06/09 08:18:11;;;;;;;13.30;8.67;;;18.70;99.90;;;;;;5001543;28;20419;-52
2022/06/09 08:20:40;;;;;;;20.47;10.53;;;18.50;99.90;;;;;;5003026;28;20446;-52
2022/06/09 08:23:17;;;;;;;13.00;9.77;;;18.40;99.90;;;;;;5004005;28;20498;-52
2022/06/09 08:25:44;;;;;;;16.77;9.77;;;18.30;99.90;;;;;;4999938;28;20466;-52
2022/06/09 08:28:11;;;;;;;21.03;9.50;;;18.30;99.90;;;;;;4999021;28;20509;-52
2022/06/09 08:30:38;;;;;;;14.03;8.90;;;18.30;99.90;;;;;;5004006;28;20974;-52
2022/06/09 08:33:04;;;;;;;19.03;9.90;;;18.40;99.90;;;;;;4997197;28;20530;-52
2022/06/09 08:35:31;;;;;;;13.23;9.33;;;18.40;99.90;;;;;;5003038;28;20432;-52
2022/06/09 08:37:57;;;;;;;16.00;9.50;;;18.50;99.90;;;;;;4996014;28;20419;-52
2022/06/09 08:40:44;;;;;;;15.13;9.60;;;18.50;99.90;;;;;;4999684;28;20432;-52
2022/06/09 08:43:16;;;;;;;16.73;10.60;;;18.60;99.90;;;;;;5006057;28;20403;-54
2022/06/09 08:45:44;;;;;;;17.50;11.67;;;18.60;99.90;;;;;;4999077;28;20509;-53
2022/06/09 08:48:24;;;;;;;15.80;10.80;;;18.50;99.90;;;;;;4999488;28;20889;-52
2022/06/09 08:50:52;;;;;;;15.57;10.00;;;18.40;99.90;;;;;;4991511;28;20473;-52
2022/06/09 08:53:28;;;;;;;13.60;9.73;;;18.40;99.90;;;;;;4997294;28;20521;-53
2022/06/09 08:56:02;;;;;;;15.17;9.43;;;18.40;99.90;;;;;;4991930;28;20426;-52
2022/06/09 08:58:47;;;;;;;12.23;8.53;;;18.50;99.90;;;;;;5002475;28;20502;-52
2022/06/09 09:01:25;;;;;;;15.43;9.30;;;18.60;99.90;;;;;;5001740;28;20505;-52
2022/06/09 09:04:13;;;;;;;18.17;10.37;;;18.50;99.90;;;;;;5000692;28;20438;-52
2022/06/09 09:06:47;;;;;;;14.70;10.20;;;18.30;99.90;;;;;;5001925;28;20438;-52
2022/06/09 09:09:26;;;;;;;16.60;9.70;;;18.10;99.90;;;;;;4987554;28;20949;-52
2022/06/09 09:12:03;;;;;;;17.80;10.87;;;18.30;99.90;;;;;;4997145;28;20442;-52
2022/06/09 09:14:39;;;;;;;15.63;10.80;;;18.30;99.90;;;;;;5001101;28;20435;-51
2022/06/09 09:17:23;;;;;;;16.60;10.03;;;18.30;99.90;;;;;;4999812;28;20446;-51
2022/06/09 09:20:05;;;;;;;12.23;8.47;;;18.30;99.90;;;;;;5004076;28;20454;-52
2022/06/09 09:22:58;;;;;;;11.10;8.33;;;18.30;99.90;;;;;;4991633;28;20479;-51
2022/06/09 09:25:52;;;;;;;11.17;8.97;;;18.30;99.90;;;;;;4987866;28;20485;-52
2022/06/09 09:28:22;;;;;;;11.87;8.70;;;18.40;99.90;;;;;;5005727;28;20788;-52
2022/06/09 09:30:48;;;;;;;11.90;8.40;;;18.50;99.90;;;;;;4992820;28;20502;-52
2022/06/09 09:33:18;;;;;;;11.20;8.53;;;18.80;99.90;;;;;;4999992;28;20525;-52
2022/06/09 09:35:47;;;;;;;11.53;8.70;;;18.80;99.90;;;;;;5003958;28;20195;-52
2022/06/09 09:38:16;;;;;;;15.00;9.00;;;19.00;99.90;;;;;;5003614;28;20415;-52
2022/06/09 09:40:49;;;;;;;12.30;8.60;;;19.30;99.90;;;;;;4989815;28;20878;-52
2022/06/09 09:43:24;;;;;;;8.40;6.63;;;19.50;99.90;;;;;;4997241;28;20419;-52
2022/06/09 09:45:53;;;;;;;14.87;8.30;;;20.00;99.90;;;;;;5000312;28;20940;-51
2022/06/09 09:48:21;;;;;;;11.47;8.40;;;20.00;99.90;;;;;;4998548;28;20433;-52
2022/06/09 09:51:19;;;;;;;13.50;8.40;;;20.00;99.90;;;;;;4992095;28;20407;-53
2022/06/09 09:53:53;;;;;;;10.70;7.07;;;19.90;99.90;;;;;;4986056;28;20439;-53
2022/06/09 09:56:19;;;;;;;9.73;8.10;;;20.00;99.90;;;;;;5000645;28;20450;-52
2022/06/09 09:58:47;;;;;;;10.03;7.83;;;20.00;99.90;;;;;;4999226;28;20850;-52
2022/06/09 10:01:22;;;;;;;10.27;7.77;;;19.90;99.90;;;;;;4996393;28;20199;-52
2022/06/09 10:09:42;;;;;;;11.30;6.53;;;21.10;99.90;;;;;;4997038;28;20498;-52
2022/06/09 10:12:22;;;;;;;5.43;4.93;;;21.00;99.90;;;;;;5001081;28;20426;-52
2022/06/09 10:14:50;;;;;;;9.63;6.30;;;20.70;99.90;;;;;;5003380;28;20414;-52
2022/06/09 10:17:37;;;;;;;13.10;6.70;;;20.40;99.90;;;;;;4995923;28;20997;-53
2022/06/09 10:20:06;;;;;;;12.57;7.83;;;19.90;99.90;;;;;;5000967;28;20449;-52
2022/06/09 10:22:36;;;;;;;13.70;8.47;;;19.50;99.90;;;;;;4998134;28;20489;-51
2022/06/09 10:25:17;;;;;;;15.43;9.03;;;19.00;99.90;;;;;;4994035;28;20475;-51
2022/06/09 10:27:49;;;;;;;13.00;9.60;;;18.90;99.90;;;;;;4986229;28;20431;-53
2022/06/09 10:30:20;;;;;;;11.23;8.60;;;19.10;99.90;;;;;;4988579;28;20439;-52
2022/06/09 10:32:52;;;;;;;13.50;9.00;;;19.80;99.90;;;;;;4997189;28;20433;-52
2022/06/09 10:35:57;;;;;;;11.03;7.93;;;20.70;99.90;;;;;;4998520;28;20447;-52
2022/06/09 10:38:32;;;;;;;18.30;8.87;;;21.10;99.90;;;;;;4942976;28;21023;-51
2022/06/09 10:41:04;;;;;;;10.60;8.50;;;21.10;99.90;;;;;;5000792;28;20473;-53
2022/06/09 10:44:03;;;;;;;11.17;8.50;;;21.00;99.90;;;;;;4994406;28;20442;-52
2022/06/09 10:46:39;;;;;;;11.40;8.23;;;20.70;99.90;;;;;;4992550;28;20989;-51
2022/06/09 10:58:06;;;;;;;11.23;7.40;;;20.80;99.90;;;;;;4984161;28;20494;-51
2022/06/09 11:00:38;;;;;;;7.53;6.53;;;21.90;99.90;;;;;;4992857;28;20443;-51
2022/06/09 11:03:23;;;;;;;10.50;7.50;;;22.40;99.90;;;;;;5004373;28;20529;-52
2022/06/09 11:05:54;;;;;;;7.20;6.20;;;22.30;99.90;;;;;;4981127;28;20481;-52
2022/06/09 11:08:30;;;;;;;6.40;5.77;;;21.90;99.90;;;;;;5000074;28;20798;-51
2022/06/09 11:11:04;;;;;;;6.40;5.70;;;21.40;99.90;;;;;;4987516;28;20506;-51
2022/06/09 11:13:53;;;;;;;5.60;5.10;;;21.70;99.90;;;;;;4999875;28;20447;-51
2022/06/09 11:16:26;;;;;;;5.50;4.90;;;22.40;99.90;;;;;;4998735;28;21108;-52
2022/06/09 11:19:10;;;;;;;5.37;4.87;;;22.80;99.90;;;;;;4992042;28;20971;-51
2022/06/09 11:21:44;;;;;;;3.93;3.63;;;23.10;99.90;;;;;;5002853;28;20574;-52
2022/06/09 11:24:16;;;;;;;4.90;4.40;;;22.70;99.90;;;;;;4989944;28;20450;-51
2022/06/09 11:26:47;;;;;;;6.37;4.37;;;22.00;99.90;;;;;;4993460;28;20455;-52
2022/06/09 11:29:37;;;;;;;5.70;4.13;;;21.90;99.90;;;;;;4987473;28;20501;-51
2022/06/09 11:32:29;;;;;;;4.47;3.80;;;21.90;99.90;;;;;;4995657;28;20477;-52
2022/06/09 11:35:03;;;;;;;4.80;4.40;;;21.80;99.90;;;;;;4995120;28;20453;-51
2022/06/09 11:37:50;;;;;;;4.57;4.13;;;21.80;99.90;;;;;;4996953;28;20479;-53
2022/06/09 11:40:22;;;;;;;5.60;5.00;;;22.70;99.90;;;;;;4992227;28;20410;-55
2022/06/09 11:43:06;;;;;;;4.30;4.00;;;23.40;99.90;;;;;;4994112;28;20443;-51
2022/06/09 11:45:41;;;;;;;4.43;4.03;;;22.80;99.90;;;;;;5003278;28;21123;-52
2022/06/09 11:48:13;;;;;;;5.00;3.70;;;22.70;99.90;;;;;;4996898;28;20446;-51
2022/06/09 11:50:43;;;;;;;5.33;4.13;;;23.00;99.90;;;;;;5001152;28;20421;-51
2022/06/09 11:53:19;;;;;;;6.83;3.90;;;23.20;99.90;;;;;;4994908;28;20450;-52
2022/06/09 11:55:58;;;;;;;6.27;3.77;;;23.60;99.90;;;;;;4999782;28;20438;-51
2022/06/09 11:58:35;;;;;;;3.80;3.50;;;24.10;99.90;;;;;;4996002;28;20921;-53
2022/06/09 12:01:19;;;;;;;4.53;4.17;;;24.10;99.90;;;;;;5004149;28;20910;-52
2022/06/09 12:04:21;;;;;;;4.20;3.90;;;23.40;99.90;;;;;;4999173;28;20430;-52
2022/06/09 12:06:59;;;;;;;4.50;4.10;;;23.40;99.90;;;;;;5003231;28;20809;-52
2022/06/09 12:09:55;;;;;;;4.40;4.00;;;23.30;99.90;;;;;;5001817;28;20415;-52
2022/06/09 12:12:45;;;;;;;4.77;4.23;;;24.70;99.90;;;;;;5005121;28;20403;-51
2022/06/09 12:15:33;;;;;;;3.67;3.37;;;25.80;99.90;;;;;;4993369;28;20495;-51
2022/06/09 12:18:15;;;;;;;4.63;3.80;;;26.10;99.90;;;;;;4985679;28;20448;-51
2022/06/09 12:20:46;;;;;;;4.03;3.73;;;27.20;99.90;;;;;;4995662;28;20504;-51
2022/06/09 12:23:24;;;;;;;3.37;3.13;;;27.70;99.90;;;;;;4994932;28;20426;-51
2022/06/09 12:26:43;;;;;;;3.80;3.50;;;27.50;99.90;;;;;;4992022;28;21345;-51
2022/06/09 12:29:23;;;;;;;4.67;4.27;;;27.20;99.90;;;;;;4974353;28;20439;-51
2022/06/09 12:32:13;;;;;;;4.23;3.83;;;25.40;99.90;;;;;;4994754;28;20452;-51
2022/06/09 12:34:46;;;;;;;4.50;4.10;;;24.20;99.90;;;;;;4968309;28;20443;-51
2022/06/09 12:37:26;;;;;;;3.97;3.67;;;23.60;99.90;;;;;;4994379;28;20750;-51
2022/06/09 12:39:55;;;;;;;4.60;4.20;;;23.40;99.90;;;;;;4994808;28;20445;-51
2022/06/09 12:42:27;;;;;;;5.53;4.30;;;24.10;99.90;;;;;;4994950;28;20423;-52
2022/06/09 12:45:14;;;;;;;3.97;3.27;;;24.40;99.90;;;;;;5002955;28;20478;-51
2022/06/09 12:48:08;;;;;;;3.57;3.10;;;24.60;99.90;;;;;;4993719;28;20477;-52
2022/06/09 12:50:37;;;;;;;6.67;3.20;;;25.10;99.90;;;;;;4988327;28;20478;-52
2022/06/09 12:53:07;;;;;;;3.30;3.00;;;25.80;99.90;;;;;;5001161;28;20426;-51
2022/06/09 12:55:36;;;;;;;3.43;3.13;;;26.40;99.90;;;;;;4992840;28;20442;-51
2022/06/09 12:58:16;;;;;;;3.83;2.60;;;26.30;99.90;;;;;;4985737;28;20454;-52
2022/06/09 13:00:58;;;;;;;2.53;2.43;;;26.90;99.90;;;;;;4995347;28;20414;-51
2022/06/09 13:03:23;;;;;;;5.83;2.40;;;26.80;99.90;;;;;;4983643;28;20439;-51
2022/06/09 13:05:50;;;;;;;2.53;2.33;;;26.20;99.90;;;;;;5001501;28;20985;-51
2022/06/09 13:08:22;;;;;;;2.90;2.60;;;25.50;99.90;;;;;;4995196;28;20212;-52
2022/06/09 13:11:07;;;;;;;2.20;2.00;;;25.00;99.90;;;;;;4991274;28;20991;-52
2022/06/09 13:13:41;;;;;;;2.37;2.17;;;24.80;99.90;;;;;;4997015;28;20493;-52
2022/06/09 13:16:14;;;;;;;5.40;2.30;;;25.70;99.90;;;;;;4999664;28;20785;-52
2022/06/09 13:18:44;;;;;;;2.87;2.67;;;25.30;99.90;;;;;;4997191;28;20446;-51
2022/06/09 13:21:22;;;;;;;3.37;2.60;;;24.90;99.90;;;;;;4999299;28;20494;-52
2022/06/09 13:23:50;;;;;;;3.03;2.73;;;24.70;99.90;;;;;;4993420;28;20814;-51
2022/06/09 13:26:23;;;;;;;5.63;2.60;;;24.90;99.90;;;;;;5001101;28;20466;-51